This is the latest recevied weather packets stored in our database for station/object K7TUS-6. If no packets are shown the sender has not sent any weather packets the latest 1 day(s).
| Time | Temp. | Humidity | Pressure | Rain* | Wind** | Luminosity | Snow |
|---|---|---|---|---|---|---|---|
| 1778105104 | 16.67° C | 2% | 982.5 hPa | - | - | - | - |
| 1778103607 | 16.11° C | 6% | 984.2 hPa | - | - | - | - |
| 1778102104 | 15.56° C | 4% | 983.3 hPa | - | - | - | - |
| 1778100006 | 13.33° C | 8% | 983.6 hPa | - | - | - | - |
| 1778099405 | 13.33° C | 7% | 984.3 hPa | - | - | - | - |
| 1778099104 | 13.33° C | 7% | 984 hPa | - | - | - | - |
| 1778098509 | 11.67° C | 11% | 982.9 hPa | - | - | - | - |
| 1778097307 | 13.89° C | 5% | 983.6 hPa | - | - | - | - |
| 1778097006 | 14.44° C | 6% | 984.1 hPa | - | - | - | - |
| 1778095509 | 13.89° C | 5% | 982.7 hPa | - | - | - | - |
| 1778094006 | 13.89° C | 5% | 982.9 hPa | - | - | - | - |
| 1778092804 | 11.67° C | 9% | 982.7 hPa | - | - | - | - |
| 1778092209 | 10° C | 13% | 983.6 hPa | - | - | - | - |
| 1778091307 | 10° C | 14% | 983 hPa | - | - | - | - |
| 1778089208 | 10° C | 9% | 983.5 hPa | - | - | - | - |
| 1778088607 | 10° C | 11% | 983 hPa | - | - | - | - |
| 1778087108 | 14.44° C | 3% | 981.7 hPa | - | - | - | - |
| 1778085905 | 11.67° C | 7% | 983.8 hPa | - | - | - | - |
| 1778084408 | 12.78° C | 6% | 982.2 hPa | - | - | - | - |
| 1778082305 | 11.11° C | 8% | 981.7 hPa | - | - | - | - |
| 1778079906 | 8.33° C | 1% | 980.4 hPa | - | - | - | - |
| 1778078108 | 6.11° C | 1% | 980.1 hPa | - | - | - | - |
| 1778076605 | 4.44° C | 1% | 981.4 hPa | - | - | - | - |
| 1778075408 | 5.56° C | 1% | 979.5 hPa | - | - | - | - |
| 1778073905 | 4.44° C | 1% | 979.2 hPa | - | - | - | - |
* Rain since midnight (hover to see other rain measurements)
** Current wind speed in m/s (hover to see current wind gust speed)